Time;durP1;ratioP1;P1;durP2;ratioP2;P2;SDS_P1;SDS_P2;PMS_P1;PMS_P2;Temp;Humidity;BMP_temperature;BMP_pressure;BME280_temperature;BME280_humidity;BME280_pressure;Samples;Min_cycle;Max_cycle;Signal;HPM_P1;HPM_P2
2024/04/03 02:25:54;;;;;;;17.90;4.50;;;14.00;81.50;;;;;;5111496;28;20073;-73
2024/04/03 02:28:19;;;;;;;17.48;4.82;;;14.10;81.20;;;;;;5116391;28;20044;-73
2024/04/03 02:30:45;;;;;;;17.73;4.18;;;14.10;81.20;;;;;;5116095;28;20031;-72
2024/04/03 02:33:11;;;;;;;17.83;4.53;;;14.00;81.00;;;;;;5116051;28;20387;-73
2024/04/03 02:35:37;;;;;;;15.80;4.22;;;14.10;81.40;;;;;;5116248;28;20382;-72
2024/04/03 02:38:03;;;;;;;15.10;4.40;;;14.00;81.20;;;;;;5116567;28;20039;-73
2024/04/03 02:40:29;;;;;;;16.23;4.40;;;14.00;81.30;;;;;;5116717;28;20058;-73
2024/04/03 02:42:55;;;;;;;19.48;4.80;;;14.00;81.10;;;;;;5116151;28;20027;-71
2024/04/03 02:45:21;;;;;;;16.13;4.53;;;14.00;81.20;;;;;;5097734;28;20068;-72
2024/04/03 02:47:46;;;;;;;13.02;4.00;;;14.00;81.20;;;;;;5115989;28;20558;-73
2024/04/03 02:50:12;;;;;;;15.65;4.13;;;14.00;81.40;;;;;;5115926;28;20096;-70
2024/04/03 02:52:38;;;;;;;13.57;4.05;;;14.00;81.40;;;;;;5115787;28;20081;-72
2024/04/03 02:55:04;;;;;;;13.60;4.30;;;14.00;81.50;;;;;;5115992;28;20387;-73
2024/04/03 02:57:31;;;;;;;15.30;5.25;;;14.00;81.50;;;;;;5116190;28;20102;-72
2024/04/03 02:59:57;;;;;;;17.45;5.00;;;14.00;81.30;;;;;;5116177;28;20039;-73
2024/04/03 03:02:23;;;;;;;13.02;4.22;;;14.00;81.60;;;;;;5116407;28;20415;-72
2024/04/03 03:04:49;;;;;;;15.18;4.35;;;13.90;81.70;;;;;;5119709;28;20024;-73
2024/04/03 03:07:15;;;;;;;13.75;4.20;;;13.90;81.70;;;;;;5126263;28;20036;-72
2024/04/03 03:09:40;;;;;;;15.10;4.55;;;13.90;81.80;;;;;;5125029;28;20028;-72
2024/04/03 03:12:06;;;;;;;19.25;4.93;;;13.90;81.70;;;;;;5118638;28;20085;-73
2024/04/03 03:14:32;;;;;;;12.02;3.80;;;13.90;81.80;;;;;;5114692;28;20058;-72
2024/04/03 03:16:58;;;;;;;15.63;4.80;;;13.90;81.90;;;;;;5115577;28;20181;-71
2024/04/03 03:19:24;;;;;;;12.15;3.85;;;13.90;81.90;;;;;;5115720;28;20036;-72
2024/04/03 03:21:50;;;;;;;15.15;4.40;;;13.80;82.10;;;;;;5115127;28;20035;-72
2024/04/03 03:24:18;;;;;;;20.20;4.82;;;13.80;82.20;;;;;;5115311;28;20379;-72
2024/04/03 03:26:44;;;;;;;13.18;4.05;;;13.80;82.40;;;;;;5115340;28;20028;-73
2024/04/03 03:29:10;;;;;;;13.35;4.57;;;13.80;82.40;;;;;;5115414;28;20094;-72
2024/04/03 03:31:35;;;;;;;15.35;4.80;;;13.80;82.20;;;;;;5115416;28;20470;-72
2024/04/03 03:34:01;;;;;;;15.35;4.80;;;13.70;82.70;;;;;;5114984;28;20036;-73
2024/04/03 03:36:27;;;;;;;15.13;4.70;;;13.70;82.70;;;;;;5115097;28;20028;-72
2024/04/03 03:38:52;;;;;;;21.58;4.85;;;13.80;82.90;;;;;;5115039;28;20053;-74
2024/04/03 03:41:18;;;;;;;15.73;5.28;;;13.80;82.90;;;;;;5115079;28;20070;-72
2024/04/03 03:43:44;;;;;;;15.93;5.05;;;13.80;82.70;;;;;;5115039;28;20036;-72
2024/04/03 03:46:11;;;;;;;15.73;5.30;;;13.80;82.90;;;;;;5114959;28;20100;-73
2024/04/03 03:54:06;;;;;;;23.95;5.45;;;13.80;83.10;;;;;;5114832;28;20042;-72
2024/04/03 03:56:31;;;;;;;18.83;5.68;;;13.90;83.10;;;;;;5114720;28;20031;-73
2024/04/03 03:58:57;;;;;;;19.25;6.10;;;13.90;83.30;;;;;;5114394;28;20039;-72
2024/04/03 04:01:23;;;;;;;21.60;5.78;;;13.90;83.00;;;;;;5114286;28;20098;-72
2024/04/03 04:03:48;;;;;;;16.50;4.45;;;13.90;82.80;;;;;;5114626;28;20023;-72
2024/04/03 04:06:14;;;;;;;12.52;4.93;;;13.80;82.60;;;;;;5114645;28;20081;-74
2024/04/03 04:08:40;;;;;;;14.68;4.28;;;13.90;82.70;;;;;;5114318;28;20044;-72
2024/04/03 04:11:06;;;;;;;15.00;4.47;;;13.80;82.60;;;;;;5113854;28;20020;-72
2024/04/03 04:13:31;;;;;;;16.15;5.07;;;13.90;83.00;;;;;;5113949;28;20046;-72
2024/04/03 04:16:02;;;;;;;22.30;5.40;;;13.90;82.70;;;;;;5113806;28;20058;-72
2024/04/03 04:18:29;;;;;;;16.15;5.28;;;13.90;82.60;;;;;;5113624;22;20049;-73
2024/04/03 04:20:56;;;;;;;16.52;4.95;;;13.80;82.60;;;;;;5074449;28;20043;-73
2024/04/03 04:23:22;;;;;;;16.00;4.78;;;13.80;82.80;;;;;;5073510;28;20036;-73
2024/04/03 04:25:55;;;;;;;20.52;5.13;;;13.80;83.00;;;;;;5072903;28;20051;-73
2024/04/03 04:28:23;;;;;;;16.63;4.97;;;13.80;83.30;;;;;;5072976;28;20032;-73
2024/04/03 04:30:58;;;;;;;15.23;5.15;;;13.70;83.20;;;;;;5072964;28;20068;-73
2024/04/03 04:33:24;;;;;;;15.85;4.90;;;13.70;83.60;;;;;;5073377;28;20043;-74
2024/04/03 04:35:57;;;;;;;20.67;5.15;;;13.80;83.70;;;;;;5072942;28;20044;-72
2024/04/03 04:38:24;;;;;;;17.35;4.90;;;13.70;83.60;;;;;;5073167;28;20098;-73
2024/04/03 04:41:08;;;;;;;17.83;4.20;;;13.80;84.00;;;;;;5055009;28;20024;-72
2024/04/03 04:43:33;;;;;;;15.50;4.78;;;13.80;84.00;;;;;;5072972;28;20506;-74
2024/04/03 04:46:03;;;;;;;19.40;5.30;;;13.80;83.90;;;;;;5072725;28;20037;-72
2024/04/03 04:48:31;;;;;;;15.23;4.53;;;13.80;84.00;;;;;;5072829;28;20036;-72
2024/04/03 04:50:59;;;;;;;16.52;5.03;;;13.80;84.10;;;;;;5054451;28;20040;-73
2024/04/03 04:53:25;;;;;;;18.10;4.95;;;13.80;84.10;;;;;;5072810;28;20388;-72
2024/04/03 04:56:02;;;;;;;15.15;4.35;;;13.90;84.30;;;;;;5072584;28;20107;-72
2024/04/03 04:58:27;;;;;;;17.88;4.50;;;13.90;84.30;;;;;;5072496;28;20063;-73
2024/04/03 05:01:05;;;;;;;19.48;5.25;;;13.80;84.30;;;;;;5071650;28;20056;-73
2024/04/03 05:03:31;;;;;;;22.48;5.38;;;13.80;84.50;;;;;;5082414;28;20037;-73
2024/04/03 05:05:57;;;;;;;17.17;4.90;;;13.80;84.70;;;;;;5072244;28;20024;-72
2024/04/03 05:08:23;;;;;;;20.45;5.38;;;13.80;84.80;;;;;;5071988;28;20123;-73
2024/04/03 05:10:56;;;;;;;22.52;5.22;;;13.90;84.80;;;;;;5072844;28;20064;-73
2024/04/03 05:13:24;;;;;;;11.80;3.50;;;13.90;84.80;;;;;;5072463;28;20036;-73
2024/04/03 05:15:50;;;;;;;16.05;4.90;;;13.90;84.50;;;;;;5073084;28;20040;-74
2024/04/03 05:18:16;;;;;;;23.23;4.80;;;13.90;84.60;;;;;;5072239;28;20055;-73
2024/04/03 05:20:42;;;;;;;19.33;4.57;;;14.00;84.70;;;;;;5054392;28;20036;-73
2024/04/03 05:23:08;;;;;;;16.15;4.70;;;14.00;84.60;;;;;;5072101;28;20031;-74
2024/04/03 05:25:33;;;;;;;19.23;4.55;;;14.00;84.50;;;;;;5072046;28;20488;-73
2024/04/03 05:28:00;;;;;;;21.98;4.85;;;14.00;84.50;;;;;;5072138;28;20044;-72
2024/04/03 05:30:25;;;;;;;21.05;5.53;;;14.00;84.50;;;;;;5089338;28;20032;-73
2024/04/03 05:32:52;;;;;;;20.35;5.03;;;14.00;84.60;;;;;;5092393;28;20039;-73
2024/04/03 05:35:18;;;;;;;18.95;5.47;;;14.10;84.50;;;;;;5092231;28;20032;-73
2024/04/03 05:37:44;;;;;;;16.15;5.30;;;14.10;85.30;;;;;;5091924;28;20039;-73
2024/04/03 05:40:11;;;;;;;20.30;4.90;;;14.20;84.50;;;;;;5092541;28;20032;-72
2024/04/03 05:42:37;;;;;;;20.27;5.50;;;14.20;84.50;;;;;;5092410;28;20126;-72
2024/04/03 05:45:03;;;;;;;20.25;5.80;;;14.30;84.40;;;;;;5092187;28;20444;-72
2024/04/03 05:47:29;;;;;;;15.52;5.55;;;14.40;84.30;;;;;;5091821;28;20032;-73
2024/04/03 05:49:55;;;;;;;15.43;4.97;;;14.40;84.00;;;;;;5092222;28;20039;-74
2024/04/03 05:52:24;;;;;;;18.95;5.22;;;14.50;84.10;;;;;;5092254;28;20040;-72
2024/04/03 05:54:50;;;;;;;13.65;5.05;;;14.50;84.00;;;;;;5092195;28;20106;-70
2024/04/03 05:57:17;;;;;;;18.02;5.07;;;14.60;83.60;;;;;;5075941;28;20049;-74
2024/04/03 05:59:46;;;;;;;17.80;5.10;;;14.60;83.50;;;;;;5034842;28;20087;-71
2024/04/03 06:02:12;;;;;;;21.58;5.70;;;14.70;83.70;;;;;;5052138;28;20033;-72
2024/04/03 06:04:38;;;;;;;20.42;5.80;;;14.80;83.40;;;;;;5051625;28;20129;-71
2024/04/03 06:07:05;;;;;;;16.50;4.55;;;15.00;83.10;;;;;;5051756;28;20397;-72
2024/04/03 06:09:31;;;;;;;18.05;5.40;;;15.20;82.70;;;;;;5034194;28;20053;-70
2024/04/03 06:11:57;;;;;;;21.23;5.80;;;15.30;82.30;;;;;;5052202;28;20106;-72
2024/04/03 06:14:23;;;;;;;20.55;9.77;;;15.50;81.90;;;;;;5052119;28;20037;-72
2024/04/03 06:16:48;;;;;;;28.35;12.50;;;15.60;81.30;;;;;;5033621;28;20033;-71
2024/04/03 06:19:15;;;;;;;27.88;13.35;;;15.70;81.00;;;;;;5051287;28;20037;-71
2024/04/03 06:21:41;;;;;;;43.90;13.80;;;15.60;80.40;;;;;;5051881;28;20032;-73
2024/04/03 06:24:07;;;;;;;25.90;11.23;;;15.70;80.70;;;;;;5036406;28;20029;-72
2024/04/03 06:26:33;;;;;;;26.38;10.73;;;15.80;80.40;;;;;;5070217;28;20125;-73
2024/04/03 06:29:00;;;;;;;21.30;9.25;;;16.10;80.10;;;;;;5072346;28;20123;-71
2024/04/03 06:31:30;;;;;;;21.05;8.27;;;16.20;79.60;;;;;;5107573;28;20028;-73
2024/04/03 06:33:58;;;;;;;19.30;7.03;;;16.40;79.10;;;;;;5102960;28;20061;-72
2024/04/03 06:36:29;;;;;;;22.38;6.90;;;16.50;78.70;;;;;;5093233;28;20032;-85
2024/04/03 06:38:55;;;;;;;19.77;6.50;;;16.70;78.60;;;;;;5095963;28;20029;-81
2024/04/03 06:41:21;;;;;;;13.93;5.18;;;17.10;78.20;;;;;;5064344;28;20048;-80
2024/04/03 06:43:46;;;;;;;17.80;6.40;;;17.40;77.40;;;;;;5052126;28;20400;-80
2024/04/03 06:46:12;;;;;;;17.88;5.05;;;17.70;76.50;;;;;;5051947;28;20120;-79
2024/04/03 06:48:39;;;;;;;23.00;5.30;;;17.90;76.10;;;;;;5053413;28;20420;-80
2024/04/03 06:51:04;;;;;;;19.25;5.80;;;17.80;75.40;;;;;;5057504;28;20048;-80
2024/04/03 06:53:31;;;;;;;19.92;5.57;;;17.70;75.80;;;;;;5055400;28;20021;-79
2024/04/03 06:56:01;;;;;;;22.05;6.13;;;17.50;76.00;;;;;;5054949;28;20040;-81
2024/04/03 06:58:35;;;;;;;21.05;6.20;;;17.40;76.20;;;;;;5055958;28;20025;-77
2024/04/03 07:01:04;;;;;;;;;;;17.20;76.60;;;;;;5055640;28;20039;-79
2024/04/03 07:03:30;;;;;;;23.13;6.15;;;17.00;75.80;;;;;;5054812;28;20351;-80
2024/04/03 07:05:56;;;;;;;21.52;6.18;;;17.00;77.10;;;;;;5054919;28;20033;-79
2024/04/03 07:08:22;;;;;;;18.00;6.53;;;16.90;76.90;;;;;;5057676;28;20099;-76
2024/04/03 07:10:47;;;;;;;18.85;6.70;;;16.80;77.20;;;;;;5072620;28;20428;-79
2024/04/03 07:13:13;;;;;;;17.20;6.10;;;16.70;77.50;;;;;;5075017;28;20036;-78
2024/04/03 07:15:39;;;;;;;22.35;6.88;;;16.80;77.50;;;;;;5054556;28;20144;-79
2024/04/03 07:18:05;;;;;;;18.55;5.47;;;16.90;77.50;;;;;;5062008;28;20044;-76
2024/04/03 07:20:32;;;;;;;20.85;6.70;;;16.80;77.40;;;;;;5066895;28;20029;-77
2024/04/03 07:22:59;;;;;;;19.23;6.25;;;16.90;77.60;;;;;;5073516;28;20162;-79
2024/04/03 07:25:26;;;;;;;17.08;4.82;;;16.80;77.30;;;;;;5063180;28;20052;-78
2024/04/03 07:27:52;;;;;;;21.48;5.20;;;16.70;77.40;;;;;;5059158;28;20082;-79
2024/04/03 07:30:19;;;;;;;19.17;4.80;;;16.60;77.40;;;;;;5070130;28;20138;-80
2024/04/03 07:32:45;;;;;;;21.63;5.50;;;16.70;77.50;;;;;;5065072;28;20370;-80
2024/04/03 07:35:10;;;;;;;17.30;5.45;;;16.70;77.20;;;;;;5036308;28;20044;-79
2024/04/03 07:37:41;;;;;;;15.93;4.93;;;16.70;77.10;;;;;;5054325;28;20060;-79
2024/04/03 07:40:11;;;;;;;18.83;5.32;;;16.70;77.00;;;;;;5052824;28;20033;-80
2024/04/03 07:42:40;;;;;;;20.77;5.38;;;16.60;77.00;;;;;;5053077;28;20519;-79
2024/04/03 07:45:09;;;;;;;23.15;6.45;;;16.70;77.10;;;;;;5035258;28;20087;-78
2024/04/03 07:47:35;;;;;;;14.68;5.78;;;16.80;76.80;;;;;;5059242;28;20040;-81
2024/04/03 07:50:08;;;;;;;17.80;5.57;;;16.90;76.60;;;;;;5069681;28;20041;-79
2024/04/03 07:52:40;;;;;;;14.60;5.97;;;17.00;76.00;;;;;;5059765;28;20059;-81
2024/04/03 07:55:07;;;;;;;16.88;5.22;;;17.10;75.80;;;;;;5070627;28;20040;-82
2024/04/03 07:57:34;;;;;;;14.77;4.65;;;17.20;75.30;;;;;;5075080;28;20174;-77
2024/04/03 08:00:03;;;;;;;15.70;5.32;;;17.20;74.90;;;;;;5068577;28;20044;-78
2024/04/03 08:02:30;;;;;;;17.88;5.47;;;17.20;75.10;;;;;;5050837;28;20076;-80
2024/04/03 08:04:55;;;;;;;26.17;6.07;;;17.30;74.70;;;;;;5059803;28;20060;-80
2024/04/03 08:07:21;;;;;;;20.05;5.40;;;17.30;74.40;;;;;;5057701;28;20072;-79
2024/04/03 08:09:47;;;;;;;19.92;5.53;;;17.30;74.50;;;;;;5063610;28;20031;-78
2024/04/03 08:12:13;;;;;;;15.20;4.82;;;17.30;74.60;;;;;;5073958;28;20046;-79
2024/04/03 08:14:38;;;;;;;24.08;7.03;;;17.30;74.40;;;;;;5038562;28;20052;-78
2024/04/03 08:17:05;;;;;;;16.30;4.90;;;17.30;74.30;;;;;;5055687;28;20033;-80
2024/04/03 08:19:30;;;;;;;25.33;5.45;;;17.40;74.40;;;;;;5073154;28;20056;-79
2024/04/03 08:21:56;;;;;;;25.77;5.40;;;17.60;74.30;;;;;;5073299;28;20440;-79
2024/04/03 08:24:23;;;;;;;23.65;5.43;;;17.60;73.70;;;;;;5073277;28;20056;-79
2024/04/03 08:26:49;;;;;;;19.17;5.55;;;17.70;73.80;;;;;;5073198;28;20043;-78
2024/04/03 08:29:17;;;;;;;16.83;5.05;;;17.80;73.80;;;;;;5073096;28;20060;-79
2024/04/03 08:31:43;;;;;;;23.50;6.38;;;17.90;74.00;;;;;;5073141;28;20036;-79
2024/04/03 08:34:09;;;;;;;18.80;5.65;;;18.00;74.10;;;;;;5072005;28;20044;-78
2024/04/03 08:36:34;;;;;;;25.92;5.50;;;18.00;74.00;;;;;;5084465;28;20025;-78
2024/04/03 08:39:00;;;;;;;18.88;5.63;;;18.10;74.10;;;;;;5072122;28;20033;-78
2024/04/03 08:41:26;;;;;;;22.00;5.57;;;18.10;74.20;;;;;;5074551;28;20037;-79
2024/04/03 08:43:53;;;;;;;21.45;5.97;;;18.10;74.20;;;;;;5090623;28;20043;-78
2024/04/03 08:46:20;;;;;;;17.02;5.18;;;18.10;73.90;;;;;;5058175;28;20128;-78
2024/04/03 08:48:48;;;;;;;18.92;4.47;;;18.20;74.50;;;;;;5054465;28;20048;-79
2024/04/03 08:51:15;;;;;;;16.60;5.28;;;18.20;74.50;;;;;;5035870;28;20580;-79
2024/04/03 08:53:45;;;;;;;21.30;5.68;;;18.20;74.60;;;;;;5053518;28;20492;-80
2024/04/03 08:56:16;;;;;;;22.90;5.40;;;18.30;74.60;;;;;;5053048;28;20098;-80
2024/04/03 08:58:42;;;;;;;21.55;5.68;;;18.30;74.50;;;;;;5053037;28;20025;-79
2024/04/03 09:01:08;;;;;;;19.80;4.53;;;18.40;74.40;;;;;;5052869;28;20447;-79
2024/04/03 09:03:34;;;;;;;18.10;4.13;;;18.50;74.60;;;;;;5053119;28;20029;-79
2024/04/03 09:05:59;;;;;;;20.30;3.85;;;18.60;74.80;;;;;;5067430;28;20396;-79
2024/04/03 09:08:25;;;;;;;14.43;3.60;;;18.80;74.80;;;;;;5073087;28;20036;-77
2024/04/03 09:10:56;;;;;;;11.23;3.17;;;18.90;74.60;;;;;;5079087;28;20040;-79
2024/04/03 09:13:22;;;;;;;22.40;3.45;;;19.10;74.60;;;;;;5071095;28;20426;-79
2024/04/03 09:15:54;;;;;;;14.73;2.70;;;19.30;74.90;;;;;;5069126;28;20063;-79
2024/04/03 09:18:21;;;;;;;17.38;3.20;;;19.40;74.60;;;;;;5072382;28;20489;-79
2024/04/03 09:20:53;;;;;;;21.90;3.67;;;19.50;74.40;;;;;;5072696;28;20068;-78
2024/04/03 09:23:19;;;;;;;26.33;3.33;;;19.60;74.40;;;;;;5072454;28;20096;-79
2024/04/03 09:25:45;;;;;;;23.70;3.28;;;19.60;74.20;;;;;;5073123;28;20029;-77
2024/04/03 09:28:12;;;;;;;12.32;3.30;;;19.60;74.40;;;;;;5072421;28;20044;-79
2024/04/03 09:30:40;;;;;;;21.10;3.35;;;19.60;74.70;;;;;;5073427;28;20035;-79
2024/04/03 09:33:07;;;;;;;12.95;2.95;;;19.50;74.70;;;;;;5072142;28;20033;-80
2024/04/03 09:35:34;;;;;;;12.45;3.22;;;19.50;74.70;;;;;;5072276;28;20035;-78
2024/04/03 09:38:01;;;;;;;15.93;3.40;;;19.50;74.80;;;;;;5071958;28;20182;-77
2024/04/03 09:40:29;;;;;;;18.65;3.10;;;19.40;74.50;;;;;;5070541;28;20048;-79
2024/04/03 09:43:02;;;;;;;17.27;3.42;;;19.50;74.30;;;;;;5071946;28;20439;-79
2024/04/03 09:45:29;;;;;;;17.03;3.23;;;19.50;74.70;;;;;;5053437;28;20463;-79
2024/04/03 09:48:09;;;;;;;14.13;2.92;;;19.60;73.90;;;;;;5069167;28;20303;-76
2024/04/03 09:50:37;;;;;;;11.10;2.45;;;19.70;73.40;;;;;;5053717;28;20056;-77
2024/04/03 09:53:09;;;;;;;17.75;3.13;;;19.70;73.20;;;;;;5055582;28;20025;-81
2024/04/03 09:55:36;;;;;;;12.60;3.05;;;19.80;72.40;;;;;;5072105;28;20067;-80
2024/04/03 09:58:12;;;;;;;9.70;3.13;;;19.90;72.20;;;;;;5071620;28;20044;-78
2024/04/03 10:00:39;;;;;;;15.43;2.83;;;20.00;71.60;;;;;;5071784;28;20480;-75
2024/04/03 10:03:06;;;;;;;11.32;2.80;;;20.10;71.20;;;;;;5071662;28;20033;-80
2024/04/03 10:05:41;;;;;;;13.43;3.78;;;20.30;70.90;;;;;;5071565;28;20025;-79
2024/04/03 10:08:11;;;;;;;17.15;3.78;;;20.30;70.70;;;;;;5053567;28;20044;-79
2024/04/03 10:10:47;;;;;;;15.35;3.88;;;20.40;70.50;;;;;;5072021;28;20021;-80
2024/04/03 10:13:24;;;;;;;9.35;2.80;;;20.50;69.80;;;;;;5072010;28;20032;-80
2024/04/03 10:16:20;;;;;;;8.73;3.05;;;20.50;69.20;;;;;;5070442;28;20024;-80
2024/04/03 10:18:52;;;;;;;17.60;3.10;;;20.50;68.40;;;;;;5055252;28;20407;-79
2024/04/03 10:21:20;;;;;;;12.63;2.92;;;20.40;68.30;;;;;;5054334;28;20083;-79
2024/04/03 10:23:48;;;;;;;12.45;2.75;;;20.50;68.70;;;;;;5074209;28;20041;-79
2024/04/03 10:26:16;;;;;;;8.18;2.47;;;20.60;67.40;;;;;;5070276;28;20051;-81
2024/04/03 10:28:42;;;;;;;8.82;1.98;;;20.50;67.00;;;;;;5065110;28;20087;-81
2024/04/03 10:31:19;;;;;;;9.98;2.30;;;20.50;66.30;;;;;;5056195;28;20103;-80
2024/04/03 10:33:49;;;;;;;9.27;2.58;;;20.60;65.40;;;;;;5056916;28;20025;-80
2024/04/03 10:36:18;;;;;;;10.23;2.60;;;20.70;64.90;;;;;;5056006;28;20180;-81
2024/04/03 10:38:44;;;;;;;12.00;2.65;;;20.90;64.40;;;;;;5056461;28;20484;-82
2024/04/03 10:41:10;;;;;;;11.00;2.40;;;20.90;63.50;;;;;;5055272;28;20424;-82
2024/04/03 10:43:37;;;;;;;10.13;2.03;;;21.00;63.30;;;;;;5057321;28;20037;-79
2024/04/03 10:46:05;;;;;;;9.38;2.47;;;21.00;62.40;;;;;;5056393;28;20063;-81
2024/04/03 10:48:31;;;;;;;8.93;2.00;;;21.00;61.90;;;;;;5056714;28;20128;-77
2024/04/03 10:50:57;;;;;;;14.30;2.65;;;21.00;62.20;;;;;;5039581;28;20076;-80
2024/04/03 10:53:24;;;;;;;8.57;2.22;;;20.90;62.20;;;;;;5067595;28;20032;-81
2024/04/03 10:55:50;;;;;;;10.57;2.63;;;20.80;62.20;;;;;;5067363;28;20029;-80
2024/04/03 10:58:16;;;;;;;10.88;2.40;;;20.80;62.10;;;;;;5077987;28;20051;-78
2024/04/03 11:00:45;;;;;;;12.02;2.80;;;20.70;62.30;;;;;;5068918;28;20037;-75
2024/04/03 11:03:11;;;;;;;12.07;2.40;;;20.60;61.80;;;;;;5056142;28;20036;-79
2024/04/03 11:05:38;;;;;;;9.02;2.38;;;20.60;62.50;;;;;;5055684;28;20163;-79
2024/04/03 11:08:05;;;;;;;9.38;2.22;;;20.60;62.60;;;;;;5077969;28;20044;-78
2024/04/03 11:10:31;;;;;;;13.20;2.90;;;20.50;63.20;;;;;;5079268;28;20380;-76
2024/04/03 11:13:05;;;;;;;10.57;3.00;;;20.40;63.10;;;;;;5075515;28;20041;-80
2024/04/03 11:15:31;;;;;;;9.32;2.88;;;20.50;63.60;;;;;;5075082;28;20123;-77
2024/04/03 11:17:59;;;;;;;14.23;3.15;;;20.50;63.60;;;;;;5074942;28;20460;-80
2024/04/03 11:20:25;;;;;;;15.07;2.65;;;20.50;63.70;;;;;;5075117;28;20044;-79
2024/04/03 11:22:56;;;;;;;13.65;2.45;;;20.60;63.90;;;;;;5074780;28;20025;-79
2024/04/03 11:25:26;;;;;;;9.57;2.50;;;20.70;63.60;;;;;;5075006;28;20056;-79
2024/04/03 11:27:53;;;;;;;10.13;2.40;;;20.70;63.50;;;;;;5074551;28;20495;-79
2024/04/03 11:30:19;;;;;;;13.07;2.67;;;20.90;62.30;;;;;;5074583;28;20033;-80
2024/04/03 11:32:45;;;;;;;18.88;3.05;;;21.10;61.80;;;;;;5074873;28;20484;-79
2024/04/03 11:35:11;;;;;;;14.98;2.70;;;21.20;61.90;;;;;;5073487;28;20024;-79
2024/04/03 11:37:37;;;;;;;11.98;2.70;;;21.30;61.80;;;;;;5074536;28;20101;-80
2024/04/03 11:40:06;;;;;;;10.45;2.67;;;21.30;61.80;;;;;;5074710;28;20033;-79
2024/04/03 11:42:33;;;;;;;13.30;2.60;;;21.30;61.40;;;;;;5074428;28;20098;-80
2024/04/03 11:44:59;;;;;;;14.80;2.63;;;21.30;61.00;;;;;;5067962;28;20175;-81
2024/04/03 11:47:25;;;;;;;12.70;1.98;;;21.30;61.20;;;;;;5056971;28;20057;-81
2024/04/03 11:49:51;;;;;;;9.90;2.00;;;21.50;61.30;;;;;;5056184;28;20037;-88
2024/04/03 11:52:17;;;;;;;10.38;2.60;;;21.50;61.10;;;;;;5074008;28;20040;-85
2024/04/03 11:54:43;;;;;;;10.77;2.58;;;21.40;60.80;;;;;;5074067;28;20094;-82
2024/04/03 11:57:09;;;;;;;14.32;2.20;;;21.50;61.10;;;;;;5074316;28;20037;-76
2024/04/03 11:59:35;;;;;;;10.57;2.33;;;21.50;61.00;;;;;;5055981;28;20047;-76
2024/04/03 12:02:04;;;;;;;10.45;2.25;;;21.60;60.90;;;;;;5073894;28;20542;-75
2024/04/03 12:04:31;;;;;;;14.52;2.83;;;21.70;60.60;;;;;;5073901;28;20032;-74
2024/04/03 12:06:58;;;;;;;9.73;2.60;;;21.70;60.50;;;;;;5073924;28;20063;-78
2024/04/03 12:09:24;;;;;;;7.60;2.10;;;21.70;60.30;;;;;;5069135;28;20116;-79
2024/04/03 12:11:50;;;;;;;10.10;2.55;;;21.70;60.20;;;;;;5056238;28;20508;-81
2024/04/03 12:14:15;;;;;;;7.82;2.15;;;21.80;60.30;;;;;;5053690;28;20028;-82
2024/04/03 12:16:41;;;;;;;12.20;2.40;;;21.90;60.20;;;;;;5053811;28;20412;-81
2024/04/03 12:19:13;;;;;;;13.95;2.70;;;22.00;60.30;;;;;;5055749;28;20476;-81
2024/04/03 12:21:43;;;;;;;7.13;2.60;;;22.20;59.90;;;;;;5067093;28;20104;-82
2024/04/03 12:24:12;;;;;;;11.15;2.25;;;22.20;59.00;;;;;;5035163;28;20397;-81
2024/04/03 12:26:39;;;;;;;16.63;3.03;;;22.20;59.00;;;;;;5035352;28;20370;-82
2024/04/03 12:29:05;;;;;;;14.13;2.40;;;22.20;59.10;;;;;;5058676;28;20476;-81
2024/04/03 12:31:32;;;;;;;17.63;2.53;;;22.20;59.10;;;;;;5073546;28;20115;-80
2024/04/03 12:33:58;;;;;;;29.58;3.80;;;22.00;59.30;;;;;;5073357;28;20392;-79
2024/04/03 12:36:24;;;;;;;9.63;2.65;;;22.00;59.40;;;;;;5073306;28;20020;-76
2024/04/03 12:38:50;;;;;;;13.20;2.55;;;22.10;59.30;;;;;;5072587;28;20032;-78
2024/04/03 12:41:16;;;;;;;11.57;2.40;;;22.30;59.00;;;;;;5071416;28;20032;-78
2024/04/03 12:43:43;;;;;;;14.63;2.65;;;22.50;58.60;;;;;;5066693;28;20037;-78
2024/04/03 12:46:10;;;;;;;20.02;3.17;;;22.50;58.40;;;;;;5053218;28;20045;-77
2024/04/03 12:48:36;;;;;;;19.73;2.67;;;22.70;58.00;;;;;;5052766;28;20408;-77
2024/04/03 12:51:02;;;;;;;16.90;2.92;;;22.80;57.70;;;;;;5053187;28;20029;-78
2024/04/03 12:53:28;;;;;;;14.50;2.40;;;22.90;57.30;;;;;;5062281;28;20056;-79
2024/04/03 12:55:55;;;;;;;17.55;2.80;;;23.00;56.90;;;;;;5066643;28;20040;-77
2024/04/03 12:58:20;;;;;;;15.68;2.42;;;22.90;56.40;;;;;;5072285;28;20029;-77
2024/04/03 13:00:46;;;;;;;16.35;2.90;;;23.00;56.40;;;;;;5072688;28;20033;-77
2024/04/03 13:03:12;;;;;;;18.50;2.78;;;23.10;56.30;;;;;;5082887;28;20552;-77
2024/04/03 13:05:38;;;;;;;8.05;2.33;;;23.20;56.20;;;;;;5093161;28;20039;-80
2024/04/03 13:08:04;;;;;;;25.30;2.95;;;23.20;56.10;;;;;;5092967;28;20050;-79
2024/04/03 13:10:32;;;;;;;18.83;2.70;;;23.20;55.70;;;;;;5093146;28;20040;-78
2024/04/03 13:12:58;;;;;;;13.02;2.15;;;23.30;55.70;;;;;;5074892;28;20060;-77
2024/04/03 13:15:24;;;;;;;13.95;2.30;;;23.30;55.70;;;;;;5096581;28;20033;-76
2024/04/03 13:17:50;;;;;;;14.27;2.88;;;23.30;55.80;;;;;;5102095;28;20036;-77
2024/04/03 13:20:15;;;;;;;15.65;3.05;;;23.20;55.70;;;;;;5094731;28;20084;-77
2024/04/03 13:22:41;;;;;;;11.77;2.67;;;23.30;55.90;;;;;;5074580;28;20048;-78
2024/04/03 13:25:07;;;;;;;15.77;2.78;;;23.10;56.00;;;;;;5096727;28;20366;-78
2024/04/03 13:27:33;;;;;;;12.00;2.67;;;23.00;56.30;;;;;;5098284;28;20127;-77
2024/04/03 13:29:59;;;;;;;11.90;2.53;;;22.80;56.60;;;;;;5092488;28;20158;-77
2024/04/03 13:32:25;;;;;;;12.30;2.67;;;22.60;56.50;;;;;;5073421;28;20025;-78
2024/04/03 13:34:50;;;;;;;13.70;2.95;;;22.60;57.10;;;;;;5071213;28;20036;-77
2024/04/03 13:37:16;;;;;;;10.45;2.03;;;22.50;57.00;;;;;;5071139;28;20498;-77
2024/04/03 13:39:42;;;;;;;17.35;2.67;;;22.40;57.60;;;;;;5053542;28;20024;-77
2024/04/03 13:42:08;;;;;;;10.98;2.60;;;22.40;57.90;;;;;;5072035;28;20391;-78
2024/04/03 13:44:34;;;;;;;10.23;2.55;;;22.30;57.90;;;;;;5072107;28;20103;-79
2024/04/03 13:47:00;;;;;;;18.42;3.50;;;22.30;58.20;;;;;;5072225;28;20028;-78
2024/04/03 13:49:25;;;;;;;17.00;3.00;;;22.20;58.60;;;;;;5071819;28;20369;-78
2024/04/03 13:51:51;;;;;;;7.88;2.40;;;22.10;58.80;;;;;;5071985;28;20052;-79
2024/04/03 13:54:17;;;;;;;12.32;2.65;;;22.00;59.10;;;;;;5071975;28;20040;-77
2024/04/03 13:56:43;;;;;;;16.88;3.17;;;21.80;59.50;;;;;;5072164;28;20044;-77
2024/04/03 13:59:10;;;;;;;14.27;3.15;;;21.80;60.00;;;;;;5071492;28;20452;-77
2024/04/03 14:01:37;;;;;;;11.35;2.78;;;21.80;60.40;;;;;;5071938;28;20539;-77
2024/04/03 14:04:03;;;;;;;13.57;3.00;;;21.80;60.70;;;;;;5053849;28;20032;-78
2024/04/03 14:06:29;;;;;;;13.05;2.78;;;21.90;60.80;;;;;;5072093;28;20028;-77
2024/04/03 14:08:55;;;;;;;12.07;3.00;;;22.10;60.90;;;;;;5072386;28;20075;-78
2024/04/03 14:11:24;;;;;;;13.07;2.80;;;22.30;60.80;;;;;;5071942;28;20066;-77
2024/04/03 14:13:51;;;;;;;14.00;3.50;;;22.50;60.50;;;;;;5056161;28;20139;-76
2024/04/03 14:16:18;;;;;;;13.05;2.97;;;22.70;60.80;;;;;;5051470;28;20514;-77
2024/04/03 14:18:45;;;;;;;10.85;2.72;;;22.70;60.90;;;;;;5051671;28;20045;-73
2024/04/03 14:21:12;;;;;;;14.35;2.63;;;22.60;60.90;;;;;;5051931;28;20040;-75
2024/04/03 14:23:37;;;;;;;12.25;3.38;;;22.40;61.40;;;;;;5051594;28;20044;-74
2024/04/03 14:26:04;;;;;;;13.43;2.80;;;22.30;62.10;;;;;;5052261;28;20053;-75
2024/04/03 14:28:30;;;;;;;16.77;3.25;;;22.10;62.40;;;;;;5062418;28;20051;-75
2024/04/03 14:30:56;;;;;;;12.70;3.33;;;22.00;62.40;;;;;;5070474;28;20043;-74
2024/04/03 14:33:22;;;;;;;11.57;2.95;;;22.00;62.50;;;;;;5071592;28;20082;-75
2024/04/03 14:35:52;;;;;;;13.27;3.30;;;21.90;62.30;;;;;;5071520;28;20032;-75
2024/04/03 14:38:23;;;;;;;13.20;3.08;;;21.90;62.90;;;;;;5071531;28;20028;-74
2024/04/03 14:40:49;;;;;;;15.43;2.65;;;21.80;63.20;;;;;;5072106;28;20033;-75
2024/04/03 14:43:14;;;;;;;10.20;2.33;;;21.70;63.40;;;;;;5072179;28;20056;-77
2024/04/03 14:45:40;;;;;;;12.25;2.60;;;21.60;63.60;;;;;;5073432;28;20029;-77
2024/04/03 14:48:07;;;;;;;11.23;2.78;;;21.60;64.00;;;;;;5072437;28;20040;-75
2024/04/03 14:50:40;;;;;;;14.15;4.07;;;21.60;63.80;;;;;;5071514;28;20473;-76
2024/04/03 14:53:06;;;;;;;13.77;2.83;;;21.50;63.10;;;;;;5070451;28;20029;-76
2024/04/03 14:55:32;;;;;;;13.65;2.53;;;21.50;63.30;;;;;;5058279;28;20107;-76
2024/04/03 14:57:58;;;;;;;12.70;2.75;;;21.40;63.60;;;;;;5051274;28;20037;-76
2024/04/03 15:00:24;;;;;;;14.20;3.28;;;21.40;63.80;;;;;;5051162;28;20044;-80
2024/04/03 15:02:50;;;;;;;10.88;2.72;;;21.60;63.80;;;;;;5051425;28;20041;-75
2024/04/03 15:05:19;;;;;;;17.23;3.17;;;21.70;63.60;;;;;;5051631;28;20135;-79
2024/04/03 15:07:48;;;;;;;12.60;2.83;;;21.80;63.80;;;;;;5052799;28;20033;-79